Time;durP1;ratioP1;P1;durP2;ratioP2;P2;SDS_P1;SDS_P2;PMS_P1;PMS_P2;Temp;Humidity;BMP_temperature;BMP_pressure;BME280_temperature;BME280_humidity;BME280_pressure;Samples;Min_cycle;Max_cycle;Signal;HPM_P1;HPM_P2
2023/08/04 00:02:00;;;;;;;1.37;0.80;;;;;;;17.03;nan;98928.06;4969004;28;20204;-79
2023/08/04 00:04:26;;;;;;;2.17;1.10;;;;;;;16.88;nan;98932.28;4968386;28;20260;-78
2023/08/04 00:06:51;;;;;;;3.25;1.10;;;;;;;16.82;nan;98925.75;4968637;28;20482;-76
2023/08/04 00:09:17;;;;;;;1.83;1.20;;;;;;;16.80;nan;98935.69;4967104;28;20654;-76
2023/08/04 00:11:42;;;;;;;2.50;1.27;;;;;;;16.78;nan;98927.88;4969805;28;20228;-78
2023/08/04 00:14:09;;;;;;;1.63;1.50;;;;;;;16.79;nan;98928.69;4965668;28;20208;-79
2023/08/04 00:16:34;;;;;;;1.50;1.10;;;;;;;16.74;nan;98929.16;4965210;28;20873;-76
2023/08/04 00:19:00;;;;;;;1.40;1.17;;;;;;;16.68;nan;98939.53;4966043;28;20474;-77
2023/08/04 00:21:25;;;;;;;1.10;1.00;;;;;;;16.66;nan;98933.53;4968356;28;20792;-76
2023/08/04 00:23:57;;;;;;;2.07;1.20;;;;;;;16.58;nan;98929.03;4968806;28;20201;-79
2023/08/04 00:26:22;;;;;;;1.60;0.97;;;;;;;16.60;nan;98937.63;4978204;28;20197;-76
2023/08/04 00:28:48;;;;;;;1.13;1.03;;;;;;;16.58;nan;98940.44;4967582;28;20479;-76
2023/08/04 00:31:14;;;;;;;1.50;1.27;;;;;;;16.57;nan;98936.13;4974506;28;20460;-79
2023/08/04 00:33:39;;;;;;;3.20;1.33;;;;;;;16.54;nan;98936.41;4971338;28;20217;-79
2023/08/04 00:36:05;;;;;;;4.40;1.17;;;;;;;16.52;nan;98941.03;4972771;28;20196;-76
2023/08/04 00:38:30;;;;;;;5.40;1.20;;;;;;;16.49;nan;98937.88;4971654;28;21235;-77
2023/08/04 00:40:56;;;;;;;2.13;1.20;;;;;;;16.54;nan;98935.59;4969319;28;20205;-77
2023/08/04 00:43:21;;;;;;;2.10;1.23;;;;;;;16.54;nan;98917.88;4973996;28;20252;-78
2023/08/04 00:45:47;;;;;;;3.00;1.20;;;;;;;16.58;nan;98915.75;4965469;28;20223;-78
2023/08/04 00:48:14;;;;;;;1.70;1.60;;;;;;;16.64;nan;98916.97;4974109;28;20225;-79
2023/08/04 00:50:39;;;;;;;1.20;1.10;;;;;;;16.70;nan;98916.34;4967252;28;20210;-77
2023/08/04 00:53:07;;;;;;;4.17;1.80;;;;;;;16.74;nan;98923.00;4974243;28;20465;-77
2023/08/04 00:55:34;;;;;;;9.07;1.90;;;;;;;16.76;nan;98918.38;4970091;28;21057;-79
2023/08/04 00:57:59;;;;;;;1.53;1.03;;;;;;;16.77;nan;98930.69;4967193;28;21636;-76
2023/08/04 01:00:25;;;;;;;1.23;1.00;;;;;;;16.78;nan;98916.44;4971414;28;20471;-77
2023/08/04 01:02:50;;;;;;;1.10;1.00;;;;;;;16.78;nan;98913.78;4970159;28;20226;-80
2023/08/04 01:05:16;;;;;;;4.43;1.27;;;;;;;16.79;nan;98912.78;4967869;28;20231;-76
2023/08/04 01:07:59;;;;;;;1.50;1.10;;;;;;;16.80;nan;98912.66;4970545;28;20762;-76
2023/08/04 01:10:38;;;;;;;3.50;1.10;;;;;;;16.85;nan;98914.84;4970295;28;20466;-79
2023/08/04 01:13:05;;;;;;;4.50;1.07;;;;;;;16.85;nan;98920.16;4968327;28;20465;-76
2023/08/04 01:15:32;;;;;;;3.63;1.20;;;;;;;16.84;nan;98920.28;4968048;28;20474;-77
2023/08/04 01:17:58;;;;;;;1.10;1.00;;;;;;;16.80;nan;98925.91;4968146;28;20467;-79
2023/08/04 01:20:25;;;;;;;1.43;1.00;;;;;;;16.79;nan;98918.09;4968133;28;20868;-76
2023/08/04 01:22:51;;;;;;;1.57;1.20;;;;;;;16.79;nan;98920.75;4951257;28;20470;-80
2023/08/04 01:25:17;;;;;;;1.50;1.03;;;;;;;16.79;nan;98915.44;4968177;28;20488;-80
2023/08/04 01:28:09;;;;;;;2.17;1.13;;;;;;;16.75;nan;98908.75;4969064;28;20477;-78
2023/08/04 01:30:36;;;;;;;3.53;1.35;;;;;;;16.73;nan;98910.72;4969934;28;20506;-78
2023/08/04 01:33:02;;;;;;;1.43;0.97;;;;;;;16.76;nan;98913.06;4970058;28;20196;-78
2023/08/04 01:35:29;;;;;;;2.38;1.10;;;;;;;16.78;nan;98908.47;4967605;28;20506;-78
2023/08/04 01:37:55;;;;;;;1.27;1.10;;;;;;;16.80;nan;98920.59;4970079;28;20293;-79
2023/08/04 01:40:20;;;;;;;1.20;1.07;;;;;;;16.80;nan;98919.78;4971036;28;20472;-79
2023/08/04 01:42:46;;;;;;;1.20;1.10;;;;;;;16.82;nan;98917.78;4986885;28;20243;-78
2023/08/04 01:45:11;;;;;;;1.43;0.90;;;;;;;16.82;nan;98920.44;4966961;28;20225;-78
2023/08/04 01:47:39;;;;;;;6.67;1.00;;;;;;;16.82;nan;98912.47;4972761;28;20224;-79
2023/08/04 01:50:09;;;;;;;5.43;1.10;;;;;;;16.85;nan;98917.50;4984487;28;20201;-78
2023/08/04 01:52:35;;;;;;;1.53;1.20;;;;;;;16.88;nan;98921.66;4976600;28;20471;-79
2023/08/04 01:55:00;;;;;;;1.40;1.30;;;;;;;16.90;nan;98928.44;4972416;28;20747;-79
2023/08/04 01:57:26;;;;;;;1.93;1.30;;;;;;;16.91;nan;98924.00;4975517;28;21167;-79
2023/08/04 01:59:51;;;;;;;2.13;1.27;;;;;;;16.88;nan;98924.31;4973817;28;20264;-79
2023/08/04 02:02:17;;;;;;;1.60;1.03;;;;;;;16.88;nan;98924.31;4966980;28;20213;-79
2023/08/04 02:04:43;;;;;;;1.67;1.17;;;;;;;16.87;nan;98927.94;4971340;28;20253;-79
2023/08/04 02:07:10;;;;;;;1.00;0.90;;;;;;;16.85;nan;98927.25;4973632;28;20462;-78
2023/08/04 02:09:37;;;;;;;5.37;1.00;;;;;;;16.79;nan;98934.00;4984481;28;20464;-79
2023/08/04 02:12:02;;;;;;;1.97;1.20;;;;;;;16.72;nan;98928.47;4973872;28;21047;-79
2023/08/04 02:14:28;;;;;;;3.33;1.13;;;;;;;16.67;nan;98932.56;4970485;28;20210;-78
2023/08/04 02:16:54;;;;;;;1.50;0.97;;;;;;;16.64;nan;98938.19;4964146;28;20619;-78
2023/08/04 02:19:22;;;;;;;1.13;1.03;;;;;;;16.59;nan;98939.44;4963271;28;20209;-78
2023/08/04 02:21:50;;;;;;;1.20;1.00;;;;;;;16.53;nan;98937.41;4959409;28;20462;-78
2023/08/04 02:24:15;;;;;;;1.97;1.17;;;;;;;16.50;nan;98929.78;4963816;28;20819;-78
2023/08/04 02:26:44;;;;;;;1.27;0.97;;;;;;;16.48;nan;98937.03;4964627;28;20210;-79
2023/08/04 02:29:10;;;;;;;2.60;1.00;;;;;;;16.49;nan;98935.22;4976784;28;20457;-78
2023/08/04 02:31:36;;;;;;;1.50;1.10;;;;;;;16.45;nan;98937.34;4967276;28;20478;-79
2023/08/04 02:34:01;;;;;;;2.60;1.10;;;;;;;16.43;nan;98927.88;4970224;28;20510;-78
2023/08/04 02:36:27;;;;;;;2.83;1.30;;;;;;;16.45;nan;98932.03;4971572;28;20302;-78
2023/08/04 02:38:52;;;;;;;2.57;1.00;;;;;;;16.48;nan;98929.09;4966493;28;20685;-79
2023/08/04 02:41:18;;;;;;;2.70;1.17;;;;;;;16.51;nan;98934.09;4968276;28;20208;-78
2023/08/04 02:43:43;;;;;;;2.50;1.57;;;;;;;16.56;nan;98926.50;4969363;28;20672;-79
2023/08/04 02:46:13;;;;;;;2.10;1.10;;;;;;;16.56;nan;98929.16;4968770;28;20223;-79
2023/08/04 02:48:40;;;;;;;4.00;1.10;;;;;;;16.57;nan;98920.22;4969025;28;20215;-79
2023/08/04 02:51:07;;;;;;;1.87;1.20;;;;;;;16.60;nan;98927.84;4969103;28;20469;-78
2023/08/04 02:53:35;;;;;;;1.53;1.10;;;;;;;16.67;nan;98920.13;4966929;28;21413;-79
2023/08/04 02:56:08;;;;;;;1.23;1.00;;;;;;;16.75;nan;98916.72;4963538;28;21194;-78
2023/08/04 02:58:33;;;;;;;3.15;1.35;;;;;;;16.77;nan;98918.25;4966214;28;20240;-77
2023/08/04 03:00:59;;;;;;;2.47;1.67;;;;;;;16.78;nan;98916.44;4965161;28;20290;-79
2023/08/04 03:03:24;;;;;;;2.20;1.20;;;;;;;16.80;nan;98923.25;4954848;28;20297;-79
2023/08/04 03:05:50;;;;;;;4.07;1.30;;;;;;;16.83;nan;98922.13;4967665;28;20228;-79
2023/08/04 03:08:15;;;;;;;1.63;1.00;;;;;;;16.84;nan;98928.25;4970197;28;20224;-79
2023/08/04 03:10:44;;;;;;;2.60;1.10;;;;;;;16.79;nan;98918.09;4967956;28;20289;-79
2023/08/04 03:13:09;;;;;;;3.03;1.33;;;;;;;16.70;nan;98919.00;4968110;28;20220;-78
2023/08/04 03:15:35;;;;;;;2.53;1.33;;;;;;;16.60;nan;98930.50;4969568;28;20471;-78
2023/08/04 03:18:01;;;;;;;1.83;1.33;;;;;;;16.52;nan;98935.72;4970219;28;20216;-78
2023/08/04 03:20:35;;;;;;;2.17;1.30;;;;;;;16.44;nan;98927.72;4968715;28;20208;-79
2023/08/04 03:23:01;;;;;;;1.57;1.27;;;;;;;16.39;nan;98932.66;4968231;28;20552;-79
2023/08/04 03:25:26;;;;;;;1.47;1.10;;;;;;;16.34;nan;98932.28;4973525;28;20478;-79
2023/08/04 03:27:51;;;;;;;1.50;1.40;;;;;;;16.35;nan;98926.81;4967591;28;20231;-78
2023/08/04 03:30:17;;;;;;;2.13;1.20;;;;;;;16.31;nan;98929.91;4968069;28;20234;-79
2023/08/04 03:32:42;;;;;;;1.20;1.10;;;;;;;16.31;nan;98929.91;4964384;28;20246;-79
2023/08/04 03:35:08;;;;;;;1.90;1.23;;;;;;;16.31;nan;98936.06;4967819;28;20195;-78
2023/08/04 03:37:34;;;;;;;3.50;1.50;;;;;;;16.35;nan;98936.59;4964732;28;21060;-78
2023/08/04 03:39:59;;;;;;;2.40;1.40;;;;;;;16.41;nan;98943.91;4964226;28;20214;-78
2023/08/04 03:42:25;;;;;;;7.83;1.60;;;;;;;16.47;nan;98935.38;4966676;28;20204;-79
2023/08/04 03:44:50;;;;;;;2.87;1.30;;;;;;;16.53;nan;98941.91;4962992;28;20223;-79
2023/08/04 03:47:15;;;;;;;1.30;1.20;;;;;;;16.60;nan;98940.28;4969936;28;20219;-79
2023/08/04 03:49:41;;;;;;;1.80;1.20;;;;;;;16.66;nan;98944.13;4966020;28;20219;-76
2023/08/04 03:52:07;;;;;;;3.23;1.20;;;;;;;16.71;nan;98941.88;4968360;28;20349;-78
2023/08/04 03:54:32;;;;;;;2.70;1.67;;;;;;;16.74;nan;98944.22;4968898;28;20684;-79
2023/08/04 03:56:57;;;;;;;2.60;1.13;;;;;;;16.77;nan;98938.66;4965427;28;20240;-78
2023/08/04 03:59:23;;;;;;;2.30;1.27;;;;;;;16.79;nan;98940.13;4966174;28;20292;-78
2023/08/04 04:01:48;;;;;;;6.80;1.40;;;;;;;16.80;nan;98944.47;4972054;28;20204;-81
2023/08/04 04:04:14;;;;;;;3.47;1.50;;;;;;;16.84;nan;98936.22;4976840;28;20230;-82
2023/08/04 04:06:39;;;;;;;2.40;1.50;;;;;;;16.89;nan;98940.06;4974934;28;20446;-82
2023/08/04 04:09:04;;;;;;;3.13;1.20;;;;;;;16.93;nan;98951.19;4978661;28;20459;-82
2023/08/04 04:11:30;;;;;;;3.53;1.20;;;;;;;16.95;nan;98946.56;4975949;28;20234;-82
2023/08/04 04:13:55;;;;;;;1.83;1.23;;;;;;;16.96;nan;98942.94;4976057;28;20208;-82
2023/08/04 04:16:21;;;;;;;2.77;1.40;;;;;;;16.98;nan;98940.94;4980231;28;20676;-82
2023/08/04 04:18:46;;;;;;;2.60;1.33;;;;;;;16.98;nan;98946.25;4977652;28;20300;-82
2023/08/04 04:21:12;;;;;;;1.50;1.33;;;;;;;16.99;nan;98947.94;4979103;28;20208;-82
2023/08/04 04:23:37;;;;;;;2.93;1.77;;;;;;;16.99;nan;98951.41;4979136;28;20215;-82
2023/08/04 04:26:07;;;;;;;1.90;1.40;;;;;;;16.97;nan;98948.06;4977794;28;20235;-82
2023/08/04 04:28:32;;;;;;;2.60;1.00;;;;;;;16.93;nan;98951.19;4975324;28;20236;-82
2023/08/04 04:31:02;;;;;;;2.37;1.30;;;;;;;16.89;nan;98948.03;4977851;28;20516;-82
2023/08/04 04:33:28;;;;;;;1.97;1.40;;;;;;;16.88;nan;98949.03;4980006;28;20457;-82
2023/08/04 04:35:54;;;;;;;2.80;1.50;;;;;;;16.90;nan;98944.38;4975878;28;20436;-82
2023/08/04 04:38:19;;;;;;;1.97;1.00;;;;;;;16.91;nan;98954.00;4974689;28;20847;-82
2023/08/04 04:40:54;;;;;;;7.40;1.73;;;;;;;16.92;nan;98950.34;4979240;28;20955;-82
2023/08/04 04:43:20;;;;;;;2.80;1.17;;;;;;;16.93;nan;98954.69;4977352;28;20209;-81
2023/08/04 04:45:49;;;;;;;1.77;1.20;;;;;;;16.96;nan;98957.03;4972439;28;21049;-81
2023/08/04 04:48:15;;;;;;;1.90;1.20;;;;;;;17.01;nan;98953.91;4976288;28;20534;-80
2023/08/04 04:50:40;;;;;;;1.87;1.33;;;;;;;17.07;nan;98958.59;4976699;28;20475;-81
2023/08/04 04:53:06;;;;;;;1.27;1.17;;;;;;;17.15;nan;98957.84;4978783;28;20201;-81
2023/08/04 04:55:31;;;;;;;3.10;2.13;;;;;;;17.23;nan;98961.38;4973702;28;20197;-81
2023/08/04 04:57:57;;;;;;;1.67;1.13;;;;;;;17.31;nan;98957.94;4985117;28;20209;-79
2023/08/04 05:00:22;;;;;;;4.80;1.60;;;;;;;17.39;nan;98958.00;4968002;28;20204;-79
2023/08/04 05:02:47;;;;;;;2.60;1.20;;;;;;;17.45;nan;98952.03;4966529;28;20201;-80
2023/08/04 05:05:13;;;;;;;2.43;1.30;;;;;;;17.47;nan;98955.38;4964186;28;21325;-79
2023/08/04 05:07:38;;;;;;;3.47;1.17;;;;;;;17.47;nan;98958.03;4965319;28;20292;-83
2023/08/04 05:10:04;;;;;;;3.37;1.10;;;;;;;17.47;nan;98957.19;4969453;28;20970;-77
2023/08/04 05:12:30;;;;;;;1.47;1.20;;;;;;;17.48;nan;98958.84;4981791;28;21087;-79
2023/08/04 05:14:55;;;;;;;5.00;1.10;;;;;;;17.52;nan;98962.84;4981265;28;20833;-82
2023/08/04 05:17:20;;;;;;;1.47;0.97;;;;;;;17.55;nan;98964.34;4968216;28;20291;-82
2023/08/04 05:19:46;;;;;;;1.33;1.10;;;;;;;17.58;nan;98966.69;4968134;28;20205;-81
2023/08/04 05:22:12;;;;;;;1.30;1.10;;;;;;;17.60;nan;98962.88;4969372;28;20704;-81
2023/08/04 05:24:37;;;;;;;1.53;0.90;;;;;;;17.61;nan;98963.75;4968117;28;20445;-78
2023/08/04 05:27:04;;;;;;;1.80;0.90;;;;;;;17.65;nan;98968.56;4966875;28;21094;-82
2023/08/04 05:29:29;;;;;;;2.30;1.00;;;;;;;17.68;nan;98968.25;4966157;28;20205;-83
2023/08/04 05:31:55;;;;;;;0.93;0.80;;;;;;;17.73;nan;98967.78;4967841;28;20447;-78
2023/08/04 05:34:20;;;;;;;4.07;2.13;;;;;;;17.78;nan;98968.13;4970024;28;20229;-82
2023/08/04 05:36:46;;;;;;;3.20;1.43;;;;;;;17.84;nan;98978.16;4970713;28;20441;-78
2023/08/04 05:39:11;;;;;;;1.50;1.40;;;;;;;17.90;nan;98974.88;4971265;28;20295;-81
2023/08/04 05:41:36;;;;;;;2.10;1.70;;;;;;;17.97;nan;98979.53;4971985;28;20209;-82
2023/08/04 05:44:02;;;;;;;1.27;1.13;;;;;;;18.03;nan;98978.88;4969200;28;20192;-83
2023/08/04 05:46:28;;;;;;;1.63;1.00;;;;;;;18.09;nan;98976.44;4969129;28;20281;-78
2023/08/04 05:48:54;;;;;;;1.13;1.03;;;;;;;18.16;nan;98970.47;4968672;28;20720;-79
2023/08/04 05:51:19;;;;;;;1.57;1.13;;;;;;;18.24;nan;98976.63;4967620;28;20464;-81
2023/08/04 05:53:45;;;;;;;1.20;1.00;;;;;;;18.30;nan;98968.00;4967125;28;20216;-83
2023/08/04 05:56:10;;;;;;;2.60;1.40;;;;;;;18.35;nan;98978.97;4965524;28;20205;-81
2023/08/04 05:58:36;;;;;;;2.40;1.10;;;;;;;18.41;nan;98976.66;4963966;28;20232;-80
2023/08/04 06:01:01;;;;;;;1.53;1.20;;;;;;;18.47;nan;98973.34;4964817;28;20216;-83
2023/08/04 06:03:27;;;;;;;2.03;0.90;;;;;;;18.51;nan;98974.69;4962910;28;20200;-83
2023/08/04 06:05:52;;;;;;;2.30;1.20;;;;;;;18.57;nan;98985.50;4963330;28;20443;-83
2023/08/04 06:08:18;;;;;;;4.13;1.47;;;;;;;18.66;nan;98980.19;4964792;28;20225;-81
2023/08/04 06:10:44;;;;;;;2.00;1.20;;;;;;;18.74;nan;98978.41;4966876;28;20201;-82
2023/08/04 06:13:09;;;;;;;1.10;0.90;;;;;;;18.83;nan;98979.25;4964987;28;20953;-79
2023/08/04 06:15:35;;;;;;;0.83;0.77;;;;;;;18.90;nan;98987.38;4972249;28;20749;-78
2023/08/04 06:18:00;;;;;;;1.00;0.90;;;;;;;18.98;nan;98987.38;4969493;28;20216;-81
2023/08/04 06:20:26;;;;;;;0.70;0.60;;;;;;;19.06;nan;98975.91;4987973;28;20324;-81
2023/08/04 06:22:51;;;;;;;1.27;1.17;;;;;;;19.13;nan;98988.38;4970863;28;20224;-79
2023/08/04 06:25:17;;;;;;;1.30;0.80;;;;;;;19.23;nan;98986.38;4967842;28;20222;-80
2023/08/04 06:27:42;;;;;;;1.10;0.80;;;;;;;19.36;nan;98983.22;4969611;28;20288;-81
2023/08/04 06:30:08;;;;;;;0.90;0.80;;;;;;;19.52;nan;98979.66;4973726;28;20201;-79
2023/08/04 06:32:34;;;;;;;2.90;0.97;;;;;;;19.70;nan;98987.47;4972289;28;20200;-78
2023/08/04 06:35:00;;;;;;;1.53;0.87;;;;;;;19.89;nan;98986.25;4970383;28;20203;-84
2023/08/04 06:37:25;;;;;;;2.10;0.87;;;;;;;20.05;nan;98991.50;4975475;28;20447;-81
2023/08/04 06:39:52;;;;;;;1.80;0.87;;;;;;;20.13;nan;98990.66;4971960;28;20287;-82
2023/08/04 06:42:18;;;;;;;1.87;0.80;;;;;;;20.26;nan;98998.91;4975122;28;20189;-85
2023/08/04 06:44:45;;;;;;;7.77;1.33;;;;;;;20.48;nan;99002.63;4970580;28;20483;-78
2023/08/04 06:47:18;;;;;;;1.87;1.13;;;;;;;20.92;nan;98998.50;4969847;28;20491;-78
2023/08/04 06:49:44;;;;;;;2.30;1.27;;;;;;;21.51;nan;98993.31;4973429;28;20618;-81
2023/08/04 06:52:09;;;;;;;0.80;0.70;;;;;;;21.70;nan;98999.97;4973546;28;20877;-78
2023/08/04 06:54:36;;;;;;;1.50;0.93;;;;;;;21.73;nan;98999.59;4975892;28;20276;-78
2023/08/04 06:57:01;;;;;;;0.90;0.70;;;;;;;21.69;nan;99010.88;4975166;28;20234;-81
2023/08/04 06:59:27;;;;;;;2.53;1.53;;;;;;;21.79;nan;99004.22;4975262;28;20758;-82
2023/08/04 07:01:52;;;;;;;0.97;0.80;;;;;;;21.94;nan;98998.03;4974398;28;20395;-78
2023/08/04 07:04:18;;;;;;;1.00;0.90;;;;;;;21.85;nan;99000.81;4979842;28;20749;-83
2023/08/04 07:06:43;;;;;;;1.73;0.90;;;;;;;21.66;nan;99009.38;4976171;28;20443;-79
2023/08/04 07:09:09;;;;;;;1.80;1.00;;;;;;;21.53;nan;99012.69;4975168;28;20222;-80
2023/08/04 07:11:34;;;;;;;4.40;1.10;;;;;;;21.44;nan;99005.75;4977136;28;20205;-85
2023/08/04 07:14:00;;;;;;;1.03;0.80;;;;;;;21.47;nan;99007.22;4976418;28;20443;-80
2023/08/04 07:16:25;;;;;;;3.47;2.27;;;;;;;21.55;nan;99007.13;4973970;28;20193;-86
2023/08/04 07:18:50;;;;;;;1.20;0.80;;;;;;;21.69;nan;99002.84;4967963;28;20197;-80
2023/08/04 07:21:16;;;;;;;1.10;1.00;;;;;;;21.71;nan;99007.00;4971960;28;20191;-81
2023/08/04 07:23:41;;;;;;;3.57;1.00;;;;;;;21.64;nan;99014.91;4967512;28;20196;-83
2023/08/04 07:26:08;;;;;;;1.00;0.90;;;;;;;21.52;nan;99015.53;4972489;28;20210;-82
2023/08/04 07:28:35;;;;;;;1.10;0.93;;;;;;;21.37;nan;99005.66;4947126;28;20292;-81
2023/08/04 07:31:08;;;;;;;1.80;0.70;;;;;;;21.21;nan;99011.13;4963675;28;20468;-82
2023/08/04 07:33:34;;;;;;;0.90;0.70;;;;;;;21.09;nan;99020.56;4963900;28;20486;-82
2023/08/04 07:36:00;;;;;;;1.17;1.07;;;;;;;21.01;nan;99018.81;4964326;28;20457;-82
2023/08/04 07:38:27;;;;;;;0.70;0.60;;;;;;;20.94;nan;99018.69;4970591;28;20503;-82
2023/08/04 07:40:52;;;;;;;1.00;0.80;;;;;;;20.85;nan;99032.28;4970291;28;20432;-82
2023/08/04 07:43:18;;;;;;;2.67;0.90;;;;;;;20.79;nan;99041.81;4966276;28;20506;-83
2023/08/04 07:45:47;;;;;;;1.00;0.90;;;;;;;20.76;nan;99032.31;4971366;28;20838;-81
2023/08/04 07:48:12;;;;;;;0.80;0.70;;;;;;;20.78;nan;99034.81;4968426;28;20320;-82
2023/08/04 07:50:45;;;;;;;2.67;0.90;;;;;;;20.81;nan;99038.97;4967641;28;20568;-82
2023/08/04 07:53:10;;;;;;;1.10;1.00;;;;;;;20.84;nan;99023.41;4974409;28;20240;-81
2023/08/04 07:55:37;;;;;;;0.80;0.70;;;;;;;20.90;nan;99024.53;4973757;28;20953;-81
2023/08/04 07:58:09;;;;;;;1.10;0.80;;;;;;;20.99;nan;99040.34;4971318;28;20227;-81
2023/08/04 08:00:35;;;;;;;0.90;0.80;;;;;;;21.08;nan;99026.94;4969264;28;20838;-82
2023/08/04 08:03:02;;;;;;;1.43;0.90;;;;;;;21.15;nan;99035.88;4977514;28;20474;-82
2023/08/04 08:05:30;;;;;;;1.10;0.80;;;;;;;21.23;nan;99037.66;4973857;28;20473;-82
2023/08/04 08:07:56;;;;;;;1.03;0.83;;;;;;;21.31;nan;99033.06;4976643;28;20461;-82
2023/08/04 08:10:21;;;;;;;0.80;0.70;;;;;;;21.44;nan;99037.81;4970819;28;21020;-81
2023/08/04 08:12:47;;;;;;;2.80;0.90;;;;;;;21.54;nan;99042.91;4968589;28;20658;-82
2023/08/04 08:15:12;;;;;;;1.53;1.00;;;;;;;21.63;nan;99044.50;4970139;28;20410;-81
2023/08/04 08:17:38;;;;;;;1.00;0.90;;;;;;;21.72;nan;99043.41;4969641;28;20447;-81
2023/08/04 08:20:05;;;;;;;1.73;0.90;;;;;;;21.77;nan;99043.69;4975486;28;20215;-82
2023/08/04 08:22:31;;;;;;;1.00;0.80;;;;;;;21.78;nan;99042.66;4974881;28;20307;-81
2023/08/04 08:24:56;;;;;;;0.80;0.70;;;;;;;21.77;nan;99041.00;4973027;28;20573;-82
2023/08/04 08:27:23;;;;;;;1.33;1.00;;;;;;;21.75;nan;99043.03;4971802;28;20233;-81
2023/08/04 08:29:53;;;;;;;0.87;0.77;;;;;;;21.75;nan;99043.03;4969562;28;20302;-83
2023/08/04 08:32:18;;;;;;;1.97;0.80;;;;;;;21.75;nan;99043.03;4967153;28;20500;-82
2023/08/04 08:34:44;;;;;;;1.00;0.80;;;;;;;21.84;nan;99044.59;4972741;28;20463;-81
2023/08/04 08:37:10;;;;;;;2.00;1.00;;;;;;;22.02;nan;99033.53;4972333;28;21027;-81
2023/08/04 08:39:35;;;;;;;1.03;0.90;;;;;;;22.29;nan;99025.88;4970015;28;20260;-82
2023/08/04 08:42:01;;;;;;;1.40;0.80;;;;;;;22.61;nan;99029.97;4969174;28;20682;-81
2023/08/04 08:44:26;;;;;;;1.53;0.80;;;;;;;22.95;nan;99025.75;4972991;28;20350;-81
2023/08/04 08:46:52;;;;;;;1.77;1.10;;;;;;;23.17;nan;99031.97;4973923;28;20258;-81
2023/08/04 08:49:23;;;;;;;1.13;0.73;;;;;;;23.33;nan;99041.56;4972130;28;20641;-81
2023/08/04 08:51:52;;;;;;;1.80;0.70;;;;;;;23.47;nan;99037.16;4973749;28;20200;-80
2023/08/04 08:54:19;;;;;;;0.87;0.70;;;;;;;23.53;nan;99029.16;4978674;28;20693;-81
2023/08/04 08:56:45;;;;;;;1.30;0.80;;;;;;;23.55;nan;99028.97;4974364;28;20719;-80
2023/08/04 08:59:11;;;;;;;1.00;0.90;;;;;;;23.58;nan;99029.41;4985255;28;20483;-81
2023/08/04 09:01:37;;;;;;;1.10;0.90;;;;;;;23.77;nan;99024.41;4979172;28;21030;-80
2023/08/04 09:04:04;;;;;;;2.07;0.80;;;;;;;23.90;nan;99035.22;4985305;28;20460;-81
2023/08/04 09:06:30;;;;;;;0.80;0.80;;;;;;;23.88;nan;99039.13;4980894;28;20487;-82
2023/08/04 09:08:55;;;;;;;0.70;0.70;;;;;;;23.65;nan;99034.81;4975394;28;20574;-81
2023/08/04 09:11:21;;;;;;;3.17;0.80;;;;;;;23.34;nan;99037.88;4974035;28;20210;-81
2023/08/04 09:13:48;;;;;;;1.77;0.80;;;;;;;23.14;nan;99040.38;4977645;28;20651;-81
2023/08/04 09:16:15;;;;;;;1.73;0.70;;;;;;;23.03;nan;99036.38;4975076;28;20209;-81
2023/08/04 09:18:41;;;;;;;0.80;0.70;;;;;;;23.12;nan;99043.28;4971140;28;20553;-81
2023/08/04 09:21:07;;;;;;;1.07;0.97;;;;;;;23.15;nan;99045.56;4987152;28;20460;-81
2023/08/04 09:23:35;;;;;;;4.20;1.10;;;;;;;23.03;nan;99052.44;4974866;28;20457;-81
2023/08/04 09:26:01;;;;;;;8.10;1.57;;;;;;;22.90;nan;99049.59;4971930;28;20242;-81
2023/08/04 09:28:27;;;;;;;0.90;0.77;;;;;;;22.88;nan;99054.34;4972351;28;20533;-81
2023/08/04 09:31:01;;;;;;;6.57;1.07;;;;;;;22.93;nan;99046.56;4972963;28;20310;-81
2023/08/04 09:33:26;;;;;;;3.43;1.20;;;;;;;23.00;nan;99050.16;4973380;28;20473;-81
2023/08/04 09:36:09;;;;;;;1.50;1.00;;;;;;;23.16;nan;99046.38;4969522;28;20447;-81
2023/08/04 09:38:36;;;;;;;1.00;0.60;;;;;;;23.29;nan;99038.47;4970686;28;20217;-82
2023/08/04 09:41:04;;;;;;;1.00;0.90;;;;;;;23.50;nan;99040.28;4967028;28;20756;-81
2023/08/04 09:43:30;;;;;;;2.93;0.90;;;;;;;23.94;nan;99041.00;4970703;28;20949;-81
2023/08/04 09:46:05;;;;;;;1.40;0.80;;;;;;;24.37;nan;99033.56;4967133;28;21755;-81
2023/08/04 09:48:30;;;;;;;14.23;1.63;;;;;;;24.73;nan;99036.00;4973735;28;20873;-81
2023/08/04 09:51:14;;;;;;;1.20;1.10;;;;;;;25.04;nan;99033.78;4974361;28;20476;-80
2023/08/04 09:53:44;;;;;;;1.47;0.70;;;;;;;25.24;nan;99031.94;4973202;28;20200;-79
2023/08/04 09:56:17;;;;;;;0.70;0.63;;;;;;;25.32;nan;99041.66;4975506;28;20463;-81
2023/08/04 09:58:48;;;;;;;1.20;0.70;;;;;;;25.35;nan;99042.06;4972945;28;20846;-82
2023/08/04 10:01:14;;;;;;;0.80;0.60;;;;;;;25.42;nan;99031.31;4971675;28;21053;-81
2023/08/04 10:03:57;;;;;;;0.80;0.60;;;;;;;25.33;nan;99036.09;4974786;28;20459;-81
2023/08/04 10:06:45;;;;;;;1.57;0.70;;;;;;;25.11;nan;99030.06;4978002;28;20491;-81
2023/08/04 10:09:31;;;;;;;2.10;0.80;;;;;;;25.04;nan;99034.59;4973997;28;20486;-82
2023/08/04 10:12:02;;;;;;;1.43;0.70;;;;;;;25.13;nan;99025.28;4974319;28;20447;-81
2023/08/04 10:14:30;;;;;;;1.00;0.70;;;;;;;25.32;nan;99026.34;4973731;28;21024;-81
2023/08/04 10:17:16;;;;;;;1.23;0.90;;;;;;;25.54;nan;99028.81;4971638;28;20563;-82
2023/08/04 10:20:12;;;;;;;0.80;0.80;;;;;;;25.75;nan;99022.38;4969851;28;20282;-81
2023/08/04 10:23:00;;;;;;;0.77;0.63;;;;;;;25.86;nan;99020.94;4972676;28;20467;-83
2023/08/04 10:25:26;;;;;;;1.03;0.70;;;;;;;25.97;nan;99017.59;4971834;28;20560;-81
2023/08/04 10:27:57;;;;;;;0.90;0.60;;;;;;;25.99;nan;99020.91;4969933;28;20506;-82
2023/08/04 10:30:38;;;;;;;0.80;0.70;;;;;;;26.02;nan;99018.59;4970964;28;20571;-81
2023/08/04 10:33:11;;;;;;;0.90;0.77;;;;;;;26.09;nan;99023.97;4972719;28;21009;-81
2023/08/04 10:36:14;;;;;;;0.70;0.60;;;;;;;25.77;nan;99025.69;4974020;28;20793;-81
2023/08/04 10:38:45;;;;;;;3.70;0.80;;;;;;;25.44;nan;99023.88;4961983;28;20472;-81
2023/08/04 10:41:14;;;;;;;0.73;0.63;;;;;;;25.19;nan;99020.97;4972944;28;20503;-81
2023/08/04 10:43:42;;;;;;;0.80;0.80;;;;;;;24.99;nan;99030.88;4974736;28;20456;-80
2023/08/04 10:46:16;;;;;;;0.70;0.67;;;;;;;24.80;nan;99033.31;4969008;28;20476;-81
2023/08/04 10:48:47;;;;;;;1.37;0.70;;;;;;;24.64;nan;99034.50;4972683;28;20493;-81
2023/08/04 10:51:13;;;;;;;0.80;0.70;;;;;;;24.58;nan;99039.88;4975135;28;23324;-80
2023/08/04 10:53:50;;;;;;;0.80;0.70;;;;;;;24.54;nan;99027.88;4974970;28;20843;-80
2023/08/04 10:56:31;;;;;;;0.80;0.60;;;;;;;24.55;nan;99038.41;4974235;28;20226;-80
2023/08/04 10:59:00;;;;;;;0.77;0.60;;;;;;;24.50;nan;99039.03;4968868;28;20491;-80
2023/08/04 11:01:31;;;;;;;0.60;0.50;;;;;;;24.35;nan;99048.22;4971617;28;20490;-80
2023/08/04 11:04:21;;;;;;;;;;;;;;;;;;;;;
2023/08/04 11:06:56;;;;;;;0.80;0.65;;;;;;;23.92;nan;99051.91;4966874;28;20543;-80
2023/08/04 11:09:31;;;;;;;0.70;0.60;;;;;;;23.71;nan;99057.31;4969593;28;20270;-80
2023/08/04 11:12:04;;;;;;;1.03;0.70;;;;;;;23.49;nan;99068.09;4969808;28;20648;-80
2023/08/04 11:14:33;;;;;;;0.70;0.60;;;;;;;23.42;nan;99070.72;4975613;28;21018;-80
2023/08/04 11:17:01;;;;;;;1.00;0.70;;;;;;;23.46;nan;99064.97;4967572;28;20546;-80
2023/08/04 11:19:30;;;;;;;0.70;0.60;;;;;;;23.47;nan;99063.97;4965893;28;20696;-80
2023/08/04 11:21:56;;;;;;;1.07;0.67;;;;;;;23.46;nan;99065.81;4966374;28;20529;-80
2023/08/04 11:24:29;;;;;;;0.60;0.57;;;;;;;23.42;nan;99065.38;4968077;28;20765;-80
2023/08/04 11:27:10;;;;;;;0.67;0.67;;;;;;;23.32;nan;99064.88;4968108;28;20501;-81
2023/08/04 11:29:40;;;;;;;0.83;0.80;;;;;;;23.11;nan;99079.09;4967667;28;20504;-80
2023/08/04 11:32:11;;;;;;;0.83;0.60;;;;;;;22.89;nan;99083.59;4967901;28;21014;-81
2023/08/04 11:34:40;;;;;;;1.10;0.70;;;;;;;22.65;nan;99091.97;4965413;28;20913;-80
2023/08/04 11:37:12;;;;;;;1.03;0.87;;;;;;;22.28;nan;99105.31;4964426;28;20495;-81
2023/08/04 11:39:46;;;;;;;0.80;0.60;;;;;;;21.95;nan;99112.00;4962816;28;20836;-81
2023/08/04 11:42:16;;;;;;;0.70;0.70;;;;;;;21.55;nan;99122.91;4966966;28;20465;-80
2023/08/04 11:44:43;;;;;;;0.80;0.70;;;;;;;21.27;nan;99137.78;4967438;28;20462;-79
2023/08/04 11:47:11;;;;;;;0.97;0.70;;;;;;;20.98;nan;99128.63;4965968;28;20444;-79
2023/08/04 11:49:39;;;;;;;0.70;0.60;;;;;;;20.80;nan;99146.75;4968807;28;20562;-79
2023/08/04 11:52:16;;;;;;;1.37;1.00;;;;;;;20.62;nan;99147.00;4970764;28;20875;-79
2023/08/04 11:55:00;;;;;;;1.00;0.77;;;;;;;20.44;nan;99140.03;4972856;28;20918;-78